Altoona, Wisconsin
Current Conditions -  °F | °C
As of 9:56 PM on Wednesday 22 Oct 2014 (Local Time) from KEAU Reporting Station
Overcast Overcast  
Wind Chill: 12°   Ceiling: 6500
Heat Index: 12°   Visibility: 10mi
Dew Point:   Wind: 9mph
Humidity: 59%   Direction: 160°SSE
Pressure: 30.12"   Gusts: 18mph
Location:  44.81°N, 91.43°W
Report Text: KEAU 230256Z AUTO 16008G16KT 10SM FEW035 BKN065 OVC080 12/04 A3012 RMK AO2 RAB16E34 SLP202 P0003 60003 T01170039 58004
Loading
Personal Weather Stations






























Interactive Weather Map
Tropical Storm Tracking
New forecast layout! Learn more

10-Day Weather Forecast

Advertisements
Track Severe Weather on mobile